Time;durP1;ratioP1;P1;durP2;ratioP2;P2;SDS_P1;SDS_P2;PMS_P1;PMS_P2;Temp;Humidity;BMP_temperature;BMP_pressure;BME280_temperature;BME280_humidity;BME280_pressure;Samples;Min_cycle;Max_cycle;Signal;HPM_P1;HPM_P2
2023/06/19 00:01:46;;;;;;;4.57;3.15;;;23.60;87.10;;;;;;5051826;28;20159;-47
2023/06/19 00:04:12;;;;;;;5.05;3.35;;;23.60;87.40;;;;;;5051912;28;20389;-52
2023/06/19 00:06:37;;;;;;;4.82;3.50;;;23.50;87.80;;;;;;5051720;28;20099;-49
2023/06/19 00:09:03;;;;;;;6.55;3.78;;;23.40;88.00;;;;;;5052016;28;20029;-52
2023/06/19 00:11:29;;;;;;;5.38;3.35;;;23.40;88.30;;;;;;5051719;28;20043;-49
2023/06/19 00:13:55;;;;;;;5.13;3.50;;;23.40;88.40;;;;;;5050228;28;20037;-52
2023/06/19 00:16:21;;;;;;;7.10;4.07;;;23.30;88.70;;;;;;5052124;28;20033;-53
2023/06/19 00:18:47;;;;;;;6.00;3.63;;;23.20;89.10;;;;;;5051626;28;20486;-50
2023/06/19 00:21:12;;;;;;;5.30;3.90;;;23.20;89.40;;;;;;5052769;28;20029;-49
2023/06/19 00:23:38;;;;;;;6.63;4.15;;;23.20;89.80;;;;;;5058330;28;20036;-52
2023/06/19 00:26:04;;;;;;;6.50;4.13;;;23.10;90.00;;;;;;5058458;28;20032;-53
2023/06/19 00:28:31;;;;;;;6.32;3.83;;;23.00;90.20;;;;;;5058116;28;20094;-53
2023/06/19 00:30:56;;;;;;;6.00;3.47;;;22.90;90.40;;;;;;5058164;28;20127;-48
2023/06/19 00:33:22;;;;;;;6.90;3.42;;;22.90;90.60;;;;;;5057102;28;20036;-50
2023/06/19 00:35:50;;;;;;;6.40;3.63;;;22.80;90.80;;;;;;5058294;28;20033;-53
2023/06/19 00:38:16;;;;;;;4.85;3.50;;;22.70;91.20;;;;;;5056657;28;20501;-53
2023/06/19 00:40:42;;;;;;;6.82;3.95;;;22.60;91.70;;;;;;5058224;28;20041;-53
2023/06/19 00:43:08;;;;;;;10.20;4.45;;;22.50;92.30;;;;;;5056786;28;20482;-52
2023/06/19 00:45:34;;;;;;;4.78;3.03;;;22.60;92.20;;;;;;5058557;28;20025;-49
2023/06/19 00:48:00;;;;;;;6.05;3.70;;;22.60;92.30;;;;;;5056588;28;20713;-50
2023/06/19 00:50:29;;;;;;;6.00;3.97;;;22.60;92.30;;;;;;5057138;28;20115;-51
2023/06/19 00:52:55;;;;;;;5.25;3.55;;;22.50;92.40;;;;;;5058212;28;20036;-53
2023/06/19 00:55:21;;;;;;;5.70;3.42;;;22.50;92.60;;;;;;5058170;28;20021;-53
2023/06/19 00:57:49;;;;;;;5.45;3.35;;;22.40;92.70;;;;;;5058521;28;20064;-53
2023/06/19 01:00:15;;;;;;;4.10;3.10;;;22.40;93.00;;;;;;5058408;28;20029;-52
2023/06/19 01:02:41;;;;;;;5.22;3.03;;;22.30;93.20;;;;;;5058319;28;20808;-49
2023/06/19 01:05:07;;;;;;;5.22;3.20;;;22.20;93.30;;;;;;5057616;28;20033;-51
2023/06/19 01:07:40;;;;;;;5.18;3.35;;;22.10;93.50;;;;;;5056904;28;20036;-53
2023/06/19 01:10:10;;;;;;;5.18;3.47;;;22.10;93.80;;;;;;5056752;28;20037;-51
2023/06/19 01:12:42;;;;;;;5.65;3.67;;;22.10;93.90;;;;;;5058437;28;20039;-51
2023/06/19 01:15:09;;;;;;;5.35;3.20;;;22.00;94.10;;;;;;5058195;28;20033;-51
2023/06/19 01:17:35;;;;;;;7.00;3.45;;;22.00;94.30;;;;;;5057990;28;20024;-52
2023/06/19 01:20:09;;;;;;;5.22;3.22;;;21.90;94.50;;;;;;5057877;28;20028;-53
2023/06/19 01:22:35;;;;;;;5.93;3.75;;;21.80;94.80;;;;;;5056793;28;20025;-51
2023/06/19 01:25:00;;;;;;;4.95;3.28;;;21.80;95.20;;;;;;5056977;28;20411;-50
2023/06/19 01:27:30;;;;;;;5.95;3.33;;;21.70;95.40;;;;;;5056584;28;20037;-50
2023/06/19 01:29:57;;;;;;;5.38;3.65;;;21.60;95.90;;;;;;5058252;28;20040;-52
2023/06/19 01:32:33;;;;;;;5.82;3.35;;;21.50;96.40;;;;;;5057633;28;20041;-52
2023/06/19 01:35:01;;;;;;;6.28;3.10;;;21.40;96.70;;;;;;5053481;28;20370;-52
2023/06/19 01:37:28;;;;;;;6.15;3.63;;;21.30;97.50;;;;;;5054961;28;20481;-52
2023/06/19 01:39:59;;;;;;;4.93;3.30;;;21.20;97.70;;;;;;5055142;28;20496;-52
2023/06/19 01:42:26;;;;;;;6.63;3.72;;;21.10;98.10;;;;;;5054559;28;20028;-53
2023/06/19 01:44:53;;;;;;;5.38;3.58;;;20.90;98.50;;;;;;5053465;28;20029;-49
2023/06/19 01:47:20;;;;;;;6.63;3.78;;;20.90;98.80;;;;;;5054633;28;20029;-52
2023/06/19 01:49:49;;;;;;;6.97;3.78;;;20.80;99.00;;;;;;5054642;28;20040;-53
2023/06/19 01:52:15;;;;;;;5.05;3.45;;;20.70;99.40;;;;;;5053006;28;20059;-50
2023/06/19 01:54:40;;;;;;;6.03;3.67;;;20.60;99.80;;;;;;5053391;28;20056;-53
2023/06/19 01:57:08;;;;;;;4.25;3.05;;;20.50;99.90;;;;;;5053916;28;20505;-51
2023/06/19 01:59:34;;;;;;;5.47;3.70;;;20.40;99.90;;;;;;5052885;28;20029;-51
2023/06/19 02:01:59;;;;;;;5.43;3.38;;;20.40;99.90;;;;;;5052720;28;20021;-54
2023/06/19 02:04:25;;;;;;;5.22;3.20;;;20.40;99.90;;;;;;5053160;28;20220;-53
2023/06/19 02:06:51;;;;;;;6.07;3.53;;;20.40;99.90;;;;;;5054838;28;20025;-53
2023/06/19 02:09:16;;;;;;;4.88;3.40;;;20.40;99.90;;;;;;5054113;28;20029;-53
2023/06/19 02:11:42;;;;;;;5.63;3.28;;;20.40;99.90;;;;;;5052546;28;20040;-52
2023/06/19 02:14:10;;;;;;;5.65;3.60;;;20.40;99.90;;;;;;5053115;28;20398;-53
2023/06/19 02:16:36;;;;;;;4.82;3.50;;;20.40;99.90;;;;;;5053021;28;20532;-53
2023/06/19 02:19:02;;;;;;;6.53;3.88;;;20.40;99.90;;;;;;5052326;28;20132;-52
2023/06/19 02:21:28;;;;;;;6.38;3.70;;;20.50;99.90;;;;;;5053793;28;20028;-52
2023/06/19 02:23:54;;;;;;;5.82;3.60;;;20.60;99.90;;;;;;5053839;28;20033;-53
2023/06/19 02:26:20;;;;;;;5.50;3.65;;;20.50;99.90;;;;;;5036165;28;20363;-54
2023/06/19 02:28:46;;;;;;;5.60;3.67;;;20.60;99.90;;;;;;5053843;28;20036;-53
2023/06/19 02:31:12;;;;;;;5.20;3.35;;;20.60;99.90;;;;;;5052092;28;20548;-53
2023/06/19 02:33:37;;;;;;;5.25;3.38;;;20.60;99.90;;;;;;5053993;28;20083;-51
2023/06/19 02:36:04;;;;;;;5.88;3.65;;;20.70;99.90;;;;;;5052726;28;20436;-54
2023/06/19 02:38:30;;;;;;;6.43;3.25;;;20.80;99.90;;;;;;5053555;28;20029;-49
2023/06/19 02:41:01;;;;;;;5.75;3.45;;;20.80;99.90;;;;;;5053117;28;20075;-55
2023/06/19 02:43:26;;;;;;;6.45;3.80;;;20.80;99.90;;;;;;5052407;28;20040;-53
2023/06/19 02:45:52;;;;;;;5.80;3.38;;;20.90;99.90;;;;;;5052441;28;20017;-54
2023/06/19 02:48:19;;;;;;;5.75;3.42;;;20.90;99.90;;;;;;5053720;28;20070;-52
2023/06/19 02:50:45;;;;;;;6.60;3.92;;;21.00;99.90;;;;;;5053848;28;20055;-54
2023/06/19 02:53:11;;;;;;;4.95;3.50;;;21.00;99.90;;;;;;5052065;28;20393;-54
2023/06/19 02:55:37;;;;;;;5.53;3.40;;;21.10;99.90;;;;;;5053179;28;20029;-55
2023/06/19 02:58:03;;;;;;;6.95;3.80;;;21.20;99.90;;;;;;5051918;28;20032;-49
2023/06/19 03:00:29;;;;;;;7.05;3.60;;;21.30;99.90;;;;;;5053210;28;20059;-51
2023/06/19 03:02:57;;;;;;;7.95;4.15;;;21.40;99.90;;;;;;5053110;28;20021;-54
2023/06/19 03:05:26;;;;;;;7.78;3.78;;;21.40;99.80;;;;;;5053342;28;20029;-55
2023/06/19 03:07:52;;;;;;;6.65;3.65;;;21.50;99.60;;;;;;5051697;28;20405;-53
2023/06/19 03:10:18;;;;;;;6.20;4.05;;;21.60;99.30;;;;;;5052708;28;20108;-53
2023/06/19 03:12:44;;;;;;;6.13;3.33;;;21.80;99.10;;;;;;5035059;28;20025;-52
2023/06/19 03:15:10;;;;;;;6.07;2.83;;;21.80;98.90;;;;;;5051538;28;20055;-53
2023/06/19 03:17:40;;;;;;;4.78;2.83;;;21.90;98.90;;;;;;5051415;28;20032;-49
2023/06/19 03:20:11;;;;;;;5.18;2.92;;;21.80;98.80;;;;;;5051384;28;20116;-52
2023/06/19 03:22:41;;;;;;;3.80;2.47;;;21.90;98.90;;;;;;5051401;28;20063;-52
2023/06/19 03:25:09;;;;;;;4.15;2.40;;;21.90;99.00;;;;;;5051608;28;20031;-54
2023/06/19 03:27:36;;;;;;;6.47;2.20;;;21.90;99.00;;;;;;5051069;28;20032;-53
2023/06/19 03:30:06;;;;;;;4.07;2.47;;;21.90;99.00;;;;;;5051339;28;20025;-50
2023/06/19 03:32:37;;;;;;;4.30;2.55;;;21.90;99.00;;;;;;5051409;28;20033;-53
2023/06/19 03:35:05;;;;;;;4.63;2.10;;;21.90;99.10;;;;;;5051494;28;20037;-55
2023/06/19 03:37:33;;;;;;;4.18;1.92;;;21.80;99.10;;;;;;5051240;28;20029;-55
2023/06/19 03:40:00;;;;;;;3.42;2.22;;;21.90;99.20;;;;;;5051275;28;20029;-54
2023/06/19 03:42:30;;;;;;;3.83;2.22;;;21.80;99.10;;;;;;5051443;28;20031;-54
2023/06/19 03:44:58;;;;;;;4.50;2.55;;;21.80;99.30;;;;;;5051543;28;20048;-51
2023/06/19 03:47:23;;;;;;;3.53;1.80;;;21.80;99.30;;;;;;5051271;28;20033;-54
2023/06/19 03:49:49;;;;;;;5.05;2.08;;;21.70;99.60;;;;;;5051106;28;20033;-53
2023/06/19 03:52:15;;;;;;;3.58;2.00;;;21.70;99.60;;;;;;5051110;28;20029;-53
2023/06/19 03:54:41;;;;;;;2.53;1.60;;;21.70;99.70;;;;;;5052474;28;20029;-54
2023/06/19 03:57:08;;;;;;;3.10;1.75;;;21.70;99.90;;;;;;5051657;28;20033;-50
2023/06/19 03:59:34;;;;;;;3.95;1.80;;;21.60;99.90;;;;;;5052154;28;20029;-51
2023/06/19 04:01:59;;;;;;;2.75;1.67;;;21.50;99.90;;;;;;5051776;28;20104;-53
2023/06/19 04:04:25;;;;;;;3.80;2.00;;;21.50;99.90;;;;;;5051111;28;20205;-54
2023/06/19 04:06:51;;;;;;;3.22;1.80;;;21.40;99.90;;;;;;5052140;28;20104;-54
2023/06/19 04:09:17;;;;;;;3.33;1.60;;;21.30;99.90;;;;;;5051359;28;20025;-49
2023/06/19 04:11:42;;;;;;;3.13;1.60;;;21.30;99.90;;;;;;5050562;28;20040;-53
2023/06/19 04:14:08;;;;;;;3.25;1.83;;;21.20;99.90;;;;;;5050818;28;20037;-52
2023/06/19 04:16:35;;;;;;;3.47;1.90;;;21.10;99.90;;;;;;5050385;28;20086;-53
2023/06/19 04:19:02;;;;;;;3.13;1.63;;;21.10;99.90;;;;;;5050064;28;20025;-54
2023/06/19 04:21:29;;;;;;;3.63;2.10;;;21.10;99.90;;;;;;5050254;28;20371;-55
2023/06/19 04:23:55;;;;;;;4.57;2.08;;;21.00;99.90;;;;;;5033491;28;20478;-51
2023/06/19 04:26:21;;;;;;;4.47;2.28;;;21.00;99.90;;;;;;5051578;28;20033;-52
2023/06/19 04:28:47;;;;;;;3.83;1.98;;;20.90;99.90;;;;;;5050246;28;20134;-51
2023/06/19 04:31:17;;;;;;;3.33;1.80;;;20.90;99.90;;;;;;5051383;28;20036;-53
2023/06/19 04:33:46;;;;;;;3.70;2.00;;;20.90;99.90;;;;;;5051482;28;20043;-53
2023/06/19 04:36:12;;;;;;;5.25;2.03;;;20.90;99.90;;;;;;5051665;28;20108;-53
2023/06/19 04:38:37;;;;;;;3.30;1.83;;;20.90;99.90;;;;;;5051520;28;20643;-52
2023/06/19 04:41:03;;;;;;;3.13;2.00;;;20.90;99.90;;;;;;5051160;28;20112;-53
2023/06/19 04:43:29;;;;;;;3.42;1.92;;;20.80;99.90;;;;;;5051693;28;20025;-54
2023/06/19 04:45:55;;;;;;;2.92;1.65;;;20.80;99.90;;;;;;5051644;28;20381;-51
2023/06/19 04:48:24;;;;;;;3.10;1.70;;;20.80;99.90;;;;;;5051238;28;20021;-55
2023/06/19 04:50:51;;;;;;;3.95;1.80;;;20.70;99.90;;;;;;5050761;28;20532;-51
2023/06/19 04:53:17;;;;;;;4.55;2.10;;;20.60;99.90;;;;;;5051114;28;20431;-55
2023/06/19 04:55:43;;;;;;;2.60;1.60;;;20.70;99.90;;;;;;5051205;28;20060;-52
2023/06/19 04:58:09;;;;;;;3.15;2.05;;;20.70;99.90;;;;;;5051096;28;20036;-51
2023/06/19 05:00:35;;;;;;;4.95;1.92;;;20.60;99.90;;;;;;5050765;28;20029;-52
2023/06/19 05:03:01;;;;;;;4.60;1.77;;;20.60;99.90;;;;;;5051087;28;20033;-51
2023/06/19 05:05:28;;;;;;;3.50;2.22;;;20.60;99.90;;;;;;5051166;28;20032;-52
2023/06/19 05:07:54;;;;;;;3.70;2.03;;;20.60;99.90;;;;;;5051113;28;20033;-50
2023/06/19 05:10:19;;;;;;;4.10;2.08;;;20.60;99.90;;;;;;5054963;28;20448;-51
2023/06/19 05:12:45;;;;;;;3.30;1.88;;;20.60;99.90;;;;;;5054668;28;20037;-54
2023/06/19 05:15:11;;;;;;;3.67;2.15;;;20.70;99.90;;;;;;5054850;28;20111;-52
2023/06/19 05:17:38;;;;;;;5.07;2.70;;;20.70;99.90;;;;;;5054854;28;20215;-51
2023/06/19 05:20:07;;;;;;;5.00;2.50;;;20.80;99.90;;;;;;5054416;28;20025;-54
2023/06/19 05:22:34;;;;;;;;;;;20.80;99.90;;;;;;5055196;28;20032;-52
2023/06/19 05:25:00;;;;;;;5.30;2.30;;;20.90;99.90;;;;;;5054786;28;20300;-49
2023/06/19 05:27:26;;;;;;;4.80;2.50;;;20.80;99.90;;;;;;5054495;28;20036;-54
2023/06/19 05:29:51;;;;;;;3.53;2.10;;;20.80;99.90;;;;;;5054559;28;20083;-50
2023/06/19 05:32:17;;;;;;;4.35;2.00;;;20.70;99.90;;;;;;5054444;28;20057;-52
2023/06/19 05:34:43;;;;;;;3.50;1.75;;;20.70;99.90;;;;;;5054510;28;20029;-52
2023/06/19 05:37:09;;;;;;;5.13;2.25;;;20.70;99.90;;;;;;5053224;28;20116;-54
2023/06/19 05:39:35;;;;;;;3.47;1.67;;;20.70;99.90;;;;;;5054543;28;20029;-50
2023/06/19 05:42:01;;;;;;;3.22;1.65;;;20.90;99.90;;;;;;5054419;28;20048;-51
2023/06/19 05:44:27;;;;;;;3.42;1.95;;;21.10;99.90;;;;;;5054662;28;20036;-54
2023/06/19 05:46:53;;;;;;;3.10;1.73;;;21.10;99.90;;;;;;5055100;28;20025;-55
2023/06/19 05:49:19;;;;;;;3.28;1.70;;;21.20;99.90;;;;;;5054222;28;20071;-54
2023/06/19 05:51:44;;;;;;;2.50;1.60;;;21.20;99.90;;;;;;5054105;28;20032;-50
2023/06/19 05:54:10;;;;;;;2.25;1.33;;;21.10;99.90;;;;;;5054376;28;20037;-53
2023/06/19 05:56:36;;;;;;;2.50;1.48;;;21.10;99.90;;;;;;5052983;28;20043;-51
2023/06/19 05:59:02;;;;;;;2.58;1.60;;;21.00;99.90;;;;;;5052475;28;20037;-52
2023/06/19 06:01:29;;;;;;;3.63;1.40;;;20.90;99.90;;;;;;5053984;28;20413;-55
2023/06/19 06:03:55;;;;;;;4.03;1.58;;;21.00;99.90;;;;;;5054274;28;20167;-53
2023/06/19 06:06:23;;;;;;;4.40;1.75;;;21.00;99.90;;;;;;5054234;28;20032;-55
2023/06/19 06:08:51;;;;;;;3.43;1.70;;;20.90;99.90;;;;;;5054218;28;20029;-54
2023/06/19 06:11:17;;;;;;;2.70;1.50;;;20.90;99.90;;;;;;5053752;28;20962;-50
2023/06/19 06:13:42;;;;;;;3.97;1.55;;;20.90;99.90;;;;;;5053773;28;20500;-51
2023/06/19 06:16:08;;;;;;;2.65;1.40;;;20.80;99.90;;;;;;5053673;28;20108;-50
2023/06/19 06:18:34;;;;;;;3.47;1.60;;;20.90;99.90;;;;;;5053560;28;20029;-51
2023/06/19 06:21:00;;;;;;;3.58;1.75;;;20.90;99.90;;;;;;5053188;28;20071;-53
2023/06/19 06:23:25;;;;;;;3.00;1.80;;;20.90;99.90;;;;;;5053656;28;20024;-52
2023/06/19 06:25:51;;;;;;;3.28;1.77;;;20.90;99.90;;;;;;5053685;28;20025;-53
2023/06/19 06:28:17;;;;;;;2.70;1.90;;;20.90;99.90;;;;;;5053589;28;20120;-54
2023/06/19 06:30:43;;;;;;;4.18;2.38;;;20.90;99.90;;;;;;5053539;28;20048;-50
2023/06/19 06:33:09;;;;;;;4.70;2.28;;;21.00;99.90;;;;;;5053515;28;20105;-51
2023/06/19 06:35:35;;;;;;;6.13;2.40;;;21.00;99.90;;;;;;5052964;28;20036;-53
2023/06/19 06:38:03;;;;;;;4.20;2.40;;;21.00;99.90;;;;;;5052987;28;20041;-52
2023/06/19 06:40:29;;;;;;;8.57;4.70;;;21.00;99.90;;;;;;5053046;28;20477;-52
2023/06/19 06:42:55;;;;;;;10.30;5.15;;;21.00;99.90;;;;;;5053059;28;20444;-51
2023/06/19 06:45:20;;;;;;;6.13;3.13;;;21.00;99.90;;;;;;5052872;28;20032;-54
2023/06/19 06:47:47;;;;;;;10.32;5.05;;;21.00;99.90;;;;;;5052707;28;20555;-54
2023/06/19 06:50:12;;;;;;;5.35;2.65;;;21.00;99.90;;;;;;5053129;28;20033;-54
2023/06/19 06:52:38;;;;;;;6.75;3.53;;;21.00;99.90;;;;;;5053067;28;20397;-50
2023/06/19 06:55:06;;;;;;;5.10;2.97;;;21.00;99.90;;;;;;5051917;28;20292;-54
2023/06/19 06:57:31;;;;;;;3.75;2.35;;;21.00;99.90;;;;;;5053323;28;20412;-50
2023/06/19 06:59:57;;;;;;;4.45;2.22;;;21.00;99.90;;;;;;5052872;28;20037;-52
2023/06/19 07:02:23;;;;;;;5.60;2.92;;;21.00;99.90;;;;;;5052461;28;20029;-51
2023/06/19 07:04:50;;;;;;;3.17;1.92;;;20.90;99.90;;;;;;5052967;28;20067;-53
2023/06/19 07:07:15;;;;;;;4.53;2.00;;;20.90;99.90;;;;;;5052523;28;20057;-54
2023/06/19 07:09:41;;;;;;;4.93;2.13;;;20.80;99.90;;;;;;5052704;28;20101;-52
2023/06/19 07:12:07;;;;;;;5.78;3.25;;;20.80;99.90;;;;;;5052287;28;20124;-53
2023/06/19 07:14:33;;;;;;;3.60;1.90;;;20.80;99.90;;;;;;5052564;28;20090;-53
2023/06/19 07:16:59;;;;;;;3.88;1.60;;;20.80;99.90;;;;;;5052189;28;20036;-49
2023/06/19 07:19:24;;;;;;;3.33;1.55;;;20.80;99.90;;;;;;5052461;28;20109;-53
2023/06/19 07:21:51;;;;;;;4.80;2.17;;;20.70;99.90;;;;;;5052401;28;20489;-52
2023/06/19 07:24:17;;;;;;;4.07;1.65;;;20.60;99.90;;;;;;5052344;28;20115;-51
2023/06/19 07:26:42;;;;;;;2.17;1.38;;;20.60;99.90;;;;;;5052581;28;20056;-51
2023/06/19 07:29:08;;;;;;;2.53;1.45;;;20.60;99.90;;;;;;5052010;28;20112;-54
2023/06/19 07:31:34;;;;;;;3.67;1.38;;;20.50;99.90;;;;;;5052186;28;20423;-50
2023/06/19 07:33:59;;;;;;;3.13;1.60;;;20.60;99.90;;;;;;5058168;28;20053;-49
2023/06/19 07:36:25;;;;;;;3.80;1.80;;;20.60;99.90;;;;;;5057889;28;20524;-53
2023/06/19 07:38:52;;;;;;;3.13;1.50;;;20.60;99.90;;;;;;5058225;28;20021;-50
2023/06/19 07:41:17;;;;;;;2.42;1.50;;;20.70;99.90;;;;;;5057727;28;20033;-50
2023/06/19 07:43:43;;;;;;;2.80;1.52;;;20.70;99.90;;;;;;5058230;28;20104;-50
2023/06/19 07:46:10;;;;;;;2.92;1.50;;;20.70;99.90;;;;;;5059155;28;20032;-48
2023/06/19 07:48:35;;;;;;;2.60;1.48;;;20.80;99.90;;;;;;5058757;28;20029;-48
2023/06/19 07:51:01;;;;;;;4.38;1.52;;;20.80;99.90;;;;;;5058574;28;20563;-52
2023/06/19 07:53:27;;;;;;;4.75;1.60;;;20.80;99.90;;;;;;5052093;28;20033;-53
2023/06/19 07:55:52;;;;;;;1.55;1.13;;;20.70;99.90;;;;;;5052383;28;20047;-49
2023/06/19 07:58:18;;;;;;;4.32;2.05;;;20.60;99.90;;;;;;5052070;28;20524;-50
2023/06/19 08:00:44;;;;;;;6.40;2.20;;;20.60;99.90;;;;;;5052037;28;20115;-51
2023/06/19 08:03:10;;;;;;;4.45;2.30;;;20.50;99.90;;;;;;5051754;28;20090;-50
2023/06/19 08:05:35;;;;;;;5.28;2.83;;;20.60;99.90;;;;;;5050418;28;20565;-50
2023/06/19 08:08:01;;;;;;;3.95;2.40;;;20.70;99.90;;;;;;5051452;28;20033;-53
2023/06/19 08:10:27;;;;;;;5.07;1.95;;;20.80;99.90;;;;;;5051969;28;20474;-52
2023/06/19 08:12:53;;;;;;;8.48;4.55;;;21.00;99.90;;;;;;5051721;28;20032;-52
2023/06/19 08:15:19;;;;;;;6.68;3.28;;;21.30;99.90;;;;;;5052121;28;20021;-50
2023/06/19 08:17:44;;;;;;;6.40;2.72;;;21.40;99.90;;;;;;5051982;28;20063;-54
2023/06/19 08:20:11;;;;;;;3.15;2.00;;;21.70;99.90;;;;;;5052034;28;20036;-54
2023/06/19 08:22:37;;;;;;;7.47;2.65;;;21.90;99.90;;;;;;5052272;28;20032;-54
2023/06/19 08:25:05;;;;;;;3.90;2.47;;;22.00;99.90;;;;;;5052682;28;20021;-54
2023/06/19 08:27:30;;;;;;;9.93;2.63;;;22.20;99.90;;;;;;5052033;28;20033;-52
2023/06/19 08:29:56;;;;;;;7.03;4.22;;;22.20;99.90;;;;;;5052967;28;20044;-53
2023/06/19 08:32:22;;;;;;;6.38;3.53;;;22.30;99.90;;;;;;5052681;28;20044;-53
2023/06/19 08:34:47;;;;;;;5.80;2.55;;;22.40;99.90;;;;;;5052924;28;20154;-50
2023/06/19 08:37:13;;;;;;;4.07;2.03;;;22.50;99.90;;;;;;5052220;28;20136;-54
2023/06/19 08:39:39;;;;;;;5.03;1.98;;;22.50;99.90;;;;;;5052203;28;20033;-50
2023/06/19 08:42:08;;;;;;;4.60;2.15;;;22.50;99.90;;;;;;5052432;28;20401;-54
2023/06/19 08:44:35;;;;;;;3.10;1.98;;;22.60;99.90;;;;;;5055898;28;20025;-52
2023/06/19 08:47:03;;;;;;;4.15;2.50;;;22.70;99.90;;;;;;5055472;28;20024;-52
2023/06/19 08:49:34;;;;;;;4.10;2.00;;;22.60;99.90;;;;;;5055580;28;20048;-49
2023/06/19 08:52:01;;;;;;;3.97;1.90;;;22.50;99.90;;;;;;5055341;28;20427;-50
2023/06/19 08:54:26;;;;;;;3.15;1.90;;;22.50;99.90;;;;;;5055304;28;20044;-51
2023/06/19 08:56:53;;;;;;;3.38;1.52;;;22.40;99.90;;;;;;5055178;28;20021;-53
2023/06/19 08:59:20;;;;;;;3.58;2.15;;;22.40;99.90;;;;;;5055308;28;20029;-51
2023/06/19 09:01:53;;;;;;;3.22;1.73;;;22.40;99.90;;;;;;5055180;28;20425;-52
2023/06/19 09:04:26;;;;;;;3.30;1.70;;;22.50;99.90;;;;;;5054093;28;20497;-52
2023/06/19 09:06:53;;;;;;;2.80;1.52;;;22.70;99.90;;;;;;5055327;28;20079;-54
2023/06/19 09:09:20;;;;;;;2.92;1.65;;;22.90;99.90;;;;;;5054914;28;20036;-52
2023/06/19 09:12:07;;;;;;;2.67;1.83;;;23.00;99.90;;;;;;5054021;28;20035;-53
2023/06/19 09:14:38;;;;;;;4.05;1.75;;;23.00;99.90;;;;;;5053736;28;20029;-49
2023/06/19 09:17:06;;;;;;;2.90;1.80;;;23.10;99.90;;;;;;5055107;28;20021;-53
2023/06/19 09:19:34;;;;;;;3.63;1.70;;;23.30;99.80;;;;;;5054681;28;20033;-53
2023/06/19 09:22:09;;;;;;;2.72;1.40;;;23.40;99.10;;;;;;5055026;28;20024;-49
2023/06/19 09:24:41;;;;;;;4.25;1.80;;;23.40;99.50;;;;;;5054003;28;20478;-51
2023/06/19 09:27:17;;;;;;;5.70;2.88;;;23.40;98.90;;;;;;5053394;28;20056;-49
2023/06/19 09:29:45;;;;;;;5.25;2.22;;;23.50;98.80;;;;;;5053727;28;20053;-52
2023/06/19 09:32:15;;;;;;;3.90;1.83;;;23.60;98.70;;;;;;5052169;28;20043;-52
2023/06/19 09:34:40;;;;;;;2.95;1.63;;;23.70;98.60;;;;;;5053543;28;20104;-50
2023/06/19 09:37:07;;;;;;;2.95;1.70;;;23.80;98.20;;;;;;5053600;28;20111;-51
2023/06/19 09:39:37;;;;;;;3.17;1.60;;;23.90;98.20;;;;;;5053493;28;20029;-49
2023/06/19 09:42:03;;;;;;;4.65;1.98;;;24.10;97.50;;;;;;5053662;28;20033;-51
2023/06/19 09:44:38;;;;;;;3.53;1.95;;;24.30;97.00;;;;;;5053300;28;20021;-50
2023/06/19 09:47:20;;;;;;;2.65;1.52;;;24.40;96.40;;;;;;5053196;28;20033;-50
2023/06/19 09:49:50;;;;;;;2.78;1.77;;;24.30;96.20;;;;;;5053383;28;20037;-49
2023/06/19 09:52:16;;;;;;;3.15;1.63;;;24.10;96.10;;;;;;5052932;28;20059;-51
2023/06/19 09:54:45;;;;;;;5.07;2.00;;;24.00;95.50;;;;;;5052568;28;20397;-49
2023/06/19 09:57:12;;;;;;;4.28;2.20;;;24.00;95.70;;;;;;5053073;28;20587;-52
2023/06/19 09:59:40;;;;;;;4.45;2.05;;;24.00;95.90;;;;;;5053465;28;20112;-51
2023/06/19 10:02:06;;;;;;;;;;;24.20;95.80;;;;;;5053313;28;20024;-48
2023/06/19 10:04:46;;;;;;;5.57;3.20;;;24.40;95.80;;;;;;5053131;28;19909;-51
2023/06/19 10:07:17;;;;;;;6.30;3.08;;;24.70;95.50;;;;;;5052825;28;20051;-53
2023/06/19 10:09:58;;;;;;;5.55;3.33;;;24.90;94.50;;;;;;5052736;28;20029;-53
2023/06/19 10:12:41;;;;;;;5.88;2.42;;;25.30;93.80;;;;;;5052808;28;20332;-49
2023/06/19 10:15:19;;;;;;;8.73;4.30;;;25.30;93.60;;;;;;5052774;28;20048;-51
2023/06/19 10:17:53;;;;;;;4.28;2.35;;;25.30;92.80;;;;;;5052669;28;20299;-50
2023/06/19 10:20:31;;;;;;;3.78;2.13;;;25.30;92.50;;;;;;5052367;28;20032;-50
2023/06/19 10:22:57;;;;;;;5.47;2.30;;;25.20;92.50;;;;;;5052532;28;20025;-53
2023/06/19 10:25:31;;;;;;;4.57;2.28;;;25.30;92.80;;;;;;5052688;28;20040;-51
2023/06/19 10:27:57;;;;;;;3.95;2.33;;;25.30;92.20;;;;;;5052179;28;20037;-50
2023/06/19 10:30:23;;;;;;;5.72;2.83;;;25.50;92.40;;;;;;5052131;28;20494;-50
2023/06/19 10:32:49;;;;;;;4.22;2.22;;;25.60;92.00;;;;;;5052513;28;20025;-52
2023/06/19 10:35:17;;;;;;;3.83;2.10;;;25.70;92.10;;;;;;5052514;28;20033;-49
2023/06/19 10:37:44;;;;;;;3.83;2.33;;;25.60;91.80;;;;;;5052397;28;20035;-52
2023/06/19 10:40:12;;;;;;;3.83;2.35;;;25.80;92.00;;;;;;5052158;28;20089;-53
2023/06/19 10:42:38;;;;;;;5.43;2.43;;;25.90;91.90;;;;;;5052364;28;20036;-51
2023/06/19 10:45:06;;;;;;;4.43;2.58;;;26.00;91.70;;;;;;5052121;28;20391;-55
2023/06/19 10:47:35;;;;;;;4.43;2.78;;;26.10;91.50;;;;;;5052360;28;20029;-52
2023/06/19 10:50:02;;;;;;;5.85;2.97;;;26.10;90.90;;;;;;5052034;28;20032;-52
2023/06/19 10:52:31;;;;;;;4.45;2.40;;;26.00;90.90;;;;;;5051998;28;20083;-52
2023/06/19 10:54:57;;;;;;;5.45;3.05;;;26.00;91.10;;;;;;5052068;28;20043;-51
2023/06/19 10:57:31;;;;;;;3.60;2.20;;;26.00;90.30;;;;;;5051846;28;20037;-55
2023/06/19 11:00:00;;;;;;;4.25;2.53;;;26.10;90.40;;;;;;5051957;28;20036;-52
2023/06/19 11:02:26;;;;;;;4.60;2.70;;;26.10;90.10;;;;;;5052017;28;20044;-53
2023/06/19 11:04:54;;;;;;;4.32;2.55;;;26.10;89.30;;;;;;5051973;28;20033;-52
2023/06/19 11:07:20;;;;;;;4.68;2.88;;;26.20;88.80;;;;;;5050983;28;20185;-51
2023/06/19 11:09:46;;;;;;;4.05;2.42;;;26.10;87.80;;;;;;5051928;28;20040;-54
2023/06/19 11:12:12;;;;;;;4.97;3.00;;;26.20;86.70;;;;;;5050400;28;20379;-54
2023/06/19 11:14:39;;;;;;;6.68;3.00;;;26.30;86.70;;;;;;5052144;28;20477;-52
2023/06/19 11:17:08;;;;;;;4.75;2.83;;;26.30;84.20;;;;;;5051811;28;20485;-51
2023/06/19 11:19:35;;;;;;;4.03;2.50;;;26.10;84.40;;;;;;5051842;28;20032;-49
2023/06/19 11:22:03;;;;;;;5.05;2.63;;;25.90;85.00;;;;;;5051604;28;20420;-51
2023/06/19 11:24:29;;;;;;;4.97;2.92;;;25.90;85.40;;;;;;5051694;28;20025;-50
2023/06/19 11:26:58;;;;;;;4.32;2.50;;;26.00;85.90;;;;;;5051476;28;20037;-53
2023/06/19 11:29:30;;;;;;;5.40;3.00;;;26.20;86.40;;;;;;5051473;28;20481;-53
2023/06/19 11:32:10;;;;;;;5.90;3.22;;;26.30;85.40;;;;;;5051404;28;20071;-52
2023/06/19 11:34:39;;;;;;;4.57;2.40;;;26.50;85.40;;;;;;5051559;28;20017;-51
2023/06/19 11:37:15;;;;;;;4.75;2.80;;;26.60;83.20;;;;;;5049739;28;20569;-50
2023/06/19 11:39:47;;;;;;;6.35;3.25;;;26.50;83.20;;;;;;5049975;28;20047;-49
2023/06/19 11:42:14;;;;;;;4.50;2.80;;;26.50;83.50;;;;;;5051029;28;20478;-50
2023/06/19 11:45:12;;;;;;;5.22;3.10;;;26.40;81.90;;;;;;5049688;28;20422;-53
2023/06/19 11:47:38;;;;;;;4.95;2.90;;;26.40;82.80;;;;;;5017135;28;20136;-50
2023/06/19 11:50:06;;;;;;;6.15;2.90;;;26.40;83.40;;;;;;5049711;28;20170;-50
2023/06/19 11:52:33;;;;;;;5.85;2.70;;;26.30;81.30;;;;;;5051064;28;20116;-49
2023/06/19 11:54:59;;;;;;;7.93;3.83;;;26.30;82.50;;;;;;5051028;28;20103;-49
2023/06/19 11:57:26;;;;;;;5.63;2.95;;;26.40;82.10;;;;;;5050848;28;20494;-49
2023/06/19 11:59:52;;;;;;;11.48;4.65;;;26.60;80.50;;;;;;5050716;28;20033;-49
2023/06/19 12:02:18;;;;;;;4.57;2.53;;;26.80;79.70;;;;;;5050698;28;20323;-50
2023/06/19 12:04:43;;;;;;;4.72;2.97;;;26.70;79.90;;;;;;5051170;28;20025;-50
2023/06/19 12:07:09;;;;;;;16.48;4.82;;;26.90;80.50;;;;;;5050704;28;20389;-50
2023/06/19 12:09:35;;;;;;;6.03;3.13;;;27.10;79.00;;;;;;5050962;28;20067;-52
2023/06/19 12:12:01;;;;;;;8.98;3.65;;;27.10;79.80;;;;;;5050733;28;20045;-54
2023/06/19 12:14:27;;;;;;;5.50;3.17;;;27.20;80.10;;;;;;5050711;28;20074;-51
2023/06/19 12:16:52;;;;;;;4.93;3.17;;;27.30;79.20;;;;;;5050491;28;20555;-54
2023/06/19 12:19:18;;;;;;;6.05;3.00;;;27.40;78.00;;;;;;5050349;28;20375;-53
2023/06/19 12:21:44;;;;;;;4.65;3.20;;;27.40;77.60;;;;;;5050287;28;20025;-49
2023/06/19 12:24:10;;;;;;;3.85;2.67;;;27.20;78.50;;;;;;5050599;28;20029;-51
2023/06/19 12:26:36;;;;;;;3.92;2.63;;;27.10;78.90;;;;;;5050381;28;20029;-51
2023/06/19 12:29:06;;;;;;;4.85;2.90;;;27.00;78.40;;;;;;5050844;28;20044;-49
2023/06/19 12:31:32;;;;;;;4.85;2.80;;;27.00;78.20;;;;;;5050420;28;20056;-51
2023/06/19 12:33:58;;;;;;;7.10;3.17;;;27.00;78.90;;;;;;5050555;28;20447;-49
2023/06/19 12:36:24;;;;;;;5.45;3.17;;;27.00;77.80;;;;;;5050639;28;20036;-50
2023/06/19 12:38:53;;;;;;;5.53;3.53;;;26.80;78.80;;;;;;5050256;28;20041;-52
2023/06/19 12:41:20;;;;;;;6.80;3.38;;;27.00;78.80;;;;;;5050141;28;20032;-52
2023/06/19 12:43:46;;;;;;;5.32;3.67;;;27.10;78.70;;;;;;5050322;28;20036;-50
2023/06/19 12:46:12;;;;;;;5.25;2.92;;;26.90;78.90;;;;;;5050473;28;20041;-52
2023/06/19 12:48:38;;;;;;;5.05;3.20;;;26.90;78.90;;;;;;5050356;28;20025;-52